<?xml version="1.0" encoding="UTF-8" standalone="no" ?>
<gpx xmlns="http://www.topografix.com/GPX/1/1" xmlns:xsi="http://www.w3.org/2001/XMLSchema-instance" xsi:schemaLocation="http://www.topografix.com/GPX/1/1 http://www.topografix.com/GPX/1/1/gpx.xsd" version="1.1" creator="VisuGPX - https://www.visugpx.com">
  <metadata>
    <name>Vacances 2021</name>
  </metadata>
  <trk>
    <name><![CDATA[Journal actif: 2021-07-30 09:41]]></name>
    <trkseg>
      <trkpt lat="49.34591" lon="-0.75882">
        <ele>16</ele>
        <time>2021-07-30T11:41:09Z</time>
      </trkpt>
      <trkpt lat="49.34594" lon="-0.75885">
        <ele>16</ele>
        <time>2021-07-30T11:41:37Z</time>
      </trkpt>
      <trkpt lat="49.34603" lon="-0.7588">
        <ele>14.08</ele>
        <time>2021-07-30T11:41:47Z</time>
      </trkpt>
      <trkpt lat="49.34601" lon="-0.75881">
        <ele>14.56</ele>
        <time>2021-07-30T11:42:00Z</time>
      </trkpt>
      <trkpt lat="49.34599" lon="-0.75889">
        <ele>14.56</ele>
        <time>2021-07-30T11:42:09Z</time>
      </trkpt>
      <trkpt lat="49.34595" lon="-0.75894">
        <ele>14.08</ele>
        <time>2021-07-30T11:42:13Z</time>
      </trkpt>
      <trkpt lat="49.34587" lon="-0.75903">
        <ele>13.6</ele>
        <time>2021-07-30T11:42:20Z</time>
      </trkpt>
      <trkpt lat="49.34579" lon="-0.75897">
        <ele>13.12</ele>
        <time>2021-07-30T11:42:29Z</time>
      </trkpt>
      <trkpt lat="49.34572" lon="-0.75892">
        <ele>12.63</ele>
        <time>2021-07-30T11:42:45Z</time>
      </trkpt>
      <trkpt lat="49.34572" lon="-0.75893">
        <ele>12.15</ele>
        <time>2021-07-30T11:48:41Z</time>
      </trkpt>
      <trkpt lat="49.34572" lon="-0.75888">
        <ele>12.15</ele>
        <time>2021-07-30T11:52:39Z</time>
      </trkpt>
      <trkpt lat="49.3457" lon="-0.75881">
        <ele>12.15</ele>
        <time>2021-07-30T11:52:43Z</time>
      </trkpt>
      <trkpt lat="49.34567" lon="-0.75876">
        <ele>12.15</ele>
        <time>2021-07-30T11:53:01Z</time>
      </trkpt>
      <trkpt lat="49.34566" lon="-0.75873">
        <ele>12.15</ele>
        <time>2021-07-30T11:53:26Z</time>
      </trkpt>
      <trkpt lat="49.34561" lon="-0.75861">
        <ele>12.15</ele>
        <time>2021-07-30T11:53:57Z</time>
      </trkpt>
      <trkpt lat="49.34549" lon="-0.75831">
        <ele>12.15</ele>
        <time>2021-07-30T11:54:41Z</time>
      </trkpt>
      <trkpt lat="49.34541" lon="-0.7582">
        <ele>12.15</ele>
        <time>2021-07-30T11:54:47Z</time>
      </trkpt>
      <trkpt lat="49.34538" lon="-0.75818">
        <ele>12.15</ele>
        <time>2021-07-30T11:54:49Z</time>
      </trkpt>
      <trkpt lat="49.34536" lon="-0.7582">
        <ele>12.15</ele>
        <time>2021-07-30T11:54:50Z</time>
      </trkpt>
      <trkpt lat="49.34534" lon="-0.75822">
        <ele>12.15</ele>
        <time>2021-07-30T11:54:51Z</time>
      </trkpt>
      <trkpt lat="49.34531" lon="-0.75825">
        <ele>12.15</ele>
        <time>2021-07-30T11:54:52Z</time>
      </trkpt>
      <trkpt lat="49.34517" lon="-0.75839">
        <ele>12.63</ele>
        <time>2021-07-30T11:54:57Z</time>
      </trkpt>
      <trkpt lat="49.34513" lon="-0.75843">
        <ele>12.63</ele>
        <time>2021-07-30T11:54:58Z</time>
      </trkpt>
      <trkpt lat="49.34478" lon="-0.75878">
        <ele>14.08</ele>
        <time>2021-07-30T11:55:06Z</time>
      </trkpt>
      <trkpt lat="49.34473" lon="-0.75881">
        <ele>14.08</ele>
        <time>2021-07-30T11:55:07Z</time>
      </trkpt>
      <trkpt lat="49.34468" lon="-0.75884">
        <ele>14.56</ele>
        <time>2021-07-30T11:55:08Z</time>
      </trkpt>
      <trkpt lat="49.34464" lon="-0.75886">
        <ele>14.56</ele>
        <time>2021-07-30T11:55:09Z</time>
      </trkpt>
      <trkpt lat="49.34459" lon="-0.75887">
        <ele>14.56</ele>
        <time>2021-07-30T11:55:10Z</time>
      </trkpt>
      <trkpt lat="49.34453" lon="-0.75887">
        <ele>14.56</ele>
        <time>2021-07-30T11:55:11Z</time>
      </trkpt>
      <trkpt lat="49.34449" lon="-0.75884">
        <ele>15.04</ele>
        <time>2021-07-30T11:55:12Z</time>
      </trkpt>
      <trkpt lat="49.34444" lon="-0.75881">
        <ele>15.04</ele>
        <time>2021-07-30T11:55:13Z</time>
      </trkpt>
      <trkpt lat="49.3444" lon="-0.75879">
        <ele>15.04</ele>
        <time>2021-07-30T11:55:14Z</time>
      </trkpt>
      <trkpt lat="49.34438" lon="-0.75877">
        <ele>15.52</ele>
        <time>2021-07-30T11:55:20Z</time>
      </trkpt>
      <trkpt lat="49.34434" lon="-0.75875">
        <ele>15.52</ele>
        <time>2021-07-30T11:55:21Z</time>
      </trkpt>
      <trkpt lat="49.34434" lon="-0.75875">
        <ele>16</ele>
        <time>2021-07-30T11:55:22Z</time>
      </trkpt>
      <trkpt lat="49.34429" lon="-0.75871">
        <ele>16</ele>
        <time>2021-07-30T11:55:24Z</time>
      </trkpt>
      <trkpt lat="49.34426" lon="-0.75869">
        <ele>16.48</ele>
        <time>2021-07-30T11:55:25Z</time>
      </trkpt>
      <trkpt lat="49.34418" lon="-0.75867">
        <ele>16.48</ele>
        <time>2021-07-30T11:55:26Z</time>
      </trkpt>
      <trkpt lat="49.34418" lon="-0.75867">
        <ele>16.96</ele>
        <time>2021-07-30T11:55:27Z</time>
      </trkpt>
      <trkpt lat="49.34412" lon="-0.75866">
        <ele>16.96</ele>
        <time>2021-07-30T11:55:28Z</time>
      </trkpt>
      <trkpt lat="49.34408" lon="-0.75865">
        <ele>16.96</ele>
        <time>2021-07-30T11:55:36Z</time>
      </trkpt>
      <trkpt lat="49.34408" lon="-0.75865">
        <ele>17.44</ele>
        <time>2021-07-30T11:55:37Z</time>
      </trkpt>
      <trkpt lat="49.34405" lon="-0.75864">
        <ele>17.44</ele>
        <time>2021-07-30T11:55:38Z</time>
      </trkpt>
      <trkpt lat="49.34402" lon="-0.75857">
        <ele>17.44</ele>
        <time>2021-07-30T11:55:39Z</time>
      </trkpt>
      <trkpt lat="49.34402" lon="-0.75851">
        <ele>17.44</ele>
        <time>2021-07-30T11:55:40Z</time>
      </trkpt>
      <trkpt lat="49.34401" lon="-0.75845">
        <ele>17.92</ele>
        <time>2021-07-30T11:55:41Z</time>
      </trkpt>
      <trkpt lat="49.34388" lon="-0.75761">
        <ele>18.4</ele>
        <time>2021-07-30T11:55:52Z</time>
      </trkpt>
      <trkpt lat="49.34368" lon="-0.75626">
        <ele>17.92</ele>
        <time>2021-07-30T11:56:06Z</time>
      </trkpt>
      <trkpt lat="49.34366" lon="-0.75543">
        <ele>17.44</ele>
        <time>2021-07-30T11:56:17Z</time>
      </trkpt>
      <trkpt lat="49.34366" lon="-0.75416">
        <ele>15.52</ele>
        <time>2021-07-30T11:56:30Z</time>
      </trkpt>
      <trkpt lat="49.34347" lon="-0.75296">
        <ele>13.12</ele>
        <time>2021-07-30T11:56:44Z</time>
      </trkpt>
      <trkpt lat="49.34344" lon="-0.7528">
        <ele>12.63</ele>
        <time>2021-07-30T11:56:53Z</time>
      </trkpt>
      <trkpt lat="49.3433" lon="-0.75264">
        <ele>12.15</ele>
        <time>2021-07-30T11:57:08Z</time>
      </trkpt>
      <trkpt lat="49.34296" lon="-0.75268">
        <ele>11.19</ele>
        <time>2021-07-30T11:57:19Z</time>
      </trkpt>
      <trkpt lat="49.34249" lon="-0.75278">
        <ele>11.19</ele>
        <time>2021-07-30T11:57:29Z</time>
      </trkpt>
      <trkpt lat="49.34236" lon="-0.75239">
        <ele>10.71</ele>
        <time>2021-07-30T11:57:37Z</time>
      </trkpt>
      <trkpt lat="49.34234" lon="-0.75223">
        <ele>11.19</ele>
        <time>2021-07-30T11:57:49Z</time>
      </trkpt>
      <trkpt lat="49.34233" lon="-0.75203">
        <ele>11.19</ele>
        <time>2021-07-30T11:58:00Z</time>
      </trkpt>
    </trkseg>
  </trk>
</gpx>